Mijn Webcam Meer informatie Mijn Webcam


webcam richting noord-oost Meer informatie webcam facing north-east


Regen radar Meer informatie rain snow radar


Bezoek onze andere website:

Template documentation
and downloads

And another site



METAR rapporten vliegvelden

   
EHGG - Groningen/Eelde
Gewijzigd: 20-11-2018 18:55
Light Showers, Regen, Grotendeels bewolkt  
Light Showers, Regen, Grotendeels bewolkt  
   Wind: Oosten 5.7 m/s
Wind: Oosten 5.7 m/s
Temperatuur: 1°C
Voelt als: -4°C
Dauwpunt: 0°C
Vochtigheid: 93%
Barometer: 1012 hPa
Bewolking: Grotendeels bewolkt
Zicht: 5 km
Bewolking: Licht bewolkt 182.9 m,
Gedeeltelijk bewolkt 213.4 m,
Grotendeels bewolkt 487.7 m
EHGG 201755Z AUTO 08011KT 050V120 5000 -SHRA FEW006 SCT007 BKN016 01/00 Q1012 TEMPO 8000 BKN012
EHMA - Schiermonnikoog
Gewijzigd: 20-11-2018 19:25
Grotendeels bewolkt  
Grotendeels bewolkt  
   Wind: Oosten 13.4 m/s
Wind: Oosten 13.4 m/s
Temperatuur: 4°C
Voelt als: -3°C
Dauwpunt: 0°C
Vochtigheid: 75%
Barometer: 1012 hPa
Bewolking: Grotendeels bewolkt
Bewolking: Licht bewolkt 579.1 m,
Gedeeltelijk bewolkt 762 m,
Grotendeels bewolkt 853.4 m
EHMA 201825Z AUTO 10026KT //// // FEW019 SCT025 BKN028 04/M00 Q1012 RE// W///H///
EHMG - Terschelling
Gewijzigd: 20-11-2018 19:25
Motregen, Grotendeels bewolkt  
Motregen, Grotendeels bewolkt  
   Wind: Oosten 18 m/s
Wind: Oosten 18 m/s
Temperatuur: 5°C
Voelt als: -2°C
Dauwpunt: 0°C
Vochtigheid: 70%
Barometer: 1012 hPa
Bewolking: Grotendeels bewolkt
Zicht: 5 km
Bewolking: Licht bewolkt 518.2 m,
Gedeeltelijk bewolkt 670.6 m,
Grotendeels bewolkt 762 m
EHMG 201825Z AUTO 10035KT 5000 DZ FEW017CB SCT022 BKN025 05/00 Q1012 W///H///
EHVL - Vlieland
Gewijzigd: 20-11-2018 19:25
Wat regen mogelijk, Bewolking  
Wat regen mogelijk, Bewolking  
   Wind: Oosten 12.9 m/s
Wind: Oosten 12.9 m/s
Temperatuur: 2°C
Voelt als: -5°C
Dauwpunt: 1°C
Vochtigheid: 93%
Barometer: 1011 hPa
Bewolking: Bewolking
Zicht: 9 km
Bewolking: Licht bewolkt 304.8 m,
Grotendeels bewolkt 396.2 m,
Licht bewolkt 457.2 m,
Bewolking 487.7 m
EHVL 201825Z AUTO 09025KT 9000 -RA FEW010 BKN013 FEW015CB OVC016 02/01 Q1011 RERA REDZ GRN
ETWM - Meppen, Germany
Gewijzigd: 20-11-2018 19:20
  
  
   Wind: Oosten 6.2 m/s<br />Gust to 6.2 m/s
Wind: Oosten 6.2 m/s
Gust to 6.2 m/s
Temperatuur: 1°C
Voelt als: -4°C
Dauwpunt: 1°C
Vochtigheid: 100%
Barometer: 1012 hPa
Zicht: meer dan 10 km
ETWM 201820Z AUTO 09012G23KT 9999 // ////// 01/01 Q1012 ///
 

Script ontwikkeld door  Saratoga-weather.org Aangepast voor de template door  Weerstation Leuven

U vindt ons ook hier:

Het Weer Aktueel

UK Metoffice

European Weather Network

WeatherCloud

Weather Underground

Benelux Weer Netwerk

AWEKAS

WeatherlinkIP

HAMweather, WeatherForYou, PWS Weather

 

Apparatuur in gebruik:

Weerstation
Davis VP2 Plus

Weerprogramma
Cumulus

Weercomputer
ASUS Eee Box B202

Webleverancier
Antagonist

Davis VP2 Plus

Cumulus

ASUS Eee Box B202

Antagonist